sensor_id;sensor_type;location;lat;lon;timestamp;temperature;humidity
1800;DHT22;919;48.274;12.292;2024-03-29T00:00:23;1.60;99.90
1800;DHT22;919;48.274;12.292;2024-03-29T00:02:50;1.70;99.90
1800;DHT22;919;48.274;12.292;2024-03-29T00:05:16;1.70;99.90
1800;DHT22;919;48.274;12.292;2024-03-29T00:07:41;1.70;99.90
1800;DHT22;919;48.274;12.292;2024-03-29T00:10:08;1.60;99.90
1800;DHT22;919;48.274;12.292;2024-03-29T00:12:34;1.50;99.90
1800;DHT22;919;48.274;12.292;2024-03-29T00:14:59;1.70;99.90
1800;DHT22;919;48.274;12.292;2024-03-29T00:17:26;1.60;99.90
1800;DHT22;919;48.274;12.292;2024-03-29T00:19:54;1.60;99.90
1800;DHT22;919;48.274;12.292;2024-03-29T00:22:19;1.60;99.90
1800;DHT22;919;48.274;12.292;2024-03-29T00:24:45;1.50;99.90
1800;DHT22;919;48.274;12.292;2024-03-29T00:27:11;1.40;99.90
1800;DHT22;919;48.274;12.292;2024-03-29T00:29:37;1.40;99.90
1800;DHT22;919;48.274;12.292;2024-03-29T00:32:03;1.30;99.90
1800;DHT22;919;48.274;12.292;2024-03-29T00:34:29;1.30;99.90
1800;DHT22;919;48.274;12.292;2024-03-29T00:36:56;1.40;99.90
1800;DHT22;919;48.274;12.292;2024-03-29T00:39:22;1.50;99.90
1800;DHT22;919;48.274;12.292;2024-03-29T00:41:47;1.70;99.90
1800;DHT22;919;48.274;12.292;2024-03-29T00:44:13;1.70;99.90
1800;DHT22;919;48.274;12.292;2024-03-29T00:46:39;1.70;99.90
1800;DHT22;919;48.274;12.292;2024-03-29T00:49:05;1.70;99.90
1800;DHT22;919;48.274;12.292;2024-03-29T00:51:31;1.70;99.90
1800;DHT22;919;48.274;12.292;2024-03-29T00:53:58;1.70;99.90
1800;DHT22;919;48.274;12.292;2024-03-29T00:56:23;1.70;99.90
1800;DHT22;919;48.274;12.292;2024-03-29T00:58:49;1.60;99.90
1800;DHT22;919;48.274;12.292;2024-03-29T01:01:15;1.60;99.90
1800;DHT22;919;48.274;12.292;2024-03-29T01:03:41;1.50;99.90
1800;DHT22;919;48.274;12.292;2024-03-29T01:06:07;1.60;99.90
1800;DHT22;919;48.274;12.292;2024-03-29T01:08:33;1.60;99.90
1800;DHT22;919;48.274;12.292;2024-03-29T01:11:00;1.50;99.90
1800;DHT22;919;48.274;12.292;2024-03-29T01:13:26;1.30;99.90
1800;DHT22;919;48.274;12.292;2024-03-29T01:15:51;1.20;99.90
1800;DHT22;919;48.274;12.292;2024-03-29T01:18:17;1.20;99.90
1800;DHT22;919;48.274;12.292;2024-03-29T01:20:43;1.30;99.90
1800;DHT22;919;48.274;12.292;2024-03-29T01:23:09;1.30;99.90
1800;DHT22;919;48.274;12.292;2024-03-29T01:25:34;1.40;99.90
1800;DHT22;919;48.274;12.292;2024-03-29T01:28:02;1.50;99.90
1800;DHT22;919;48.274;12.292;2024-03-29T01:30:27;1.50;99.90
1800;DHT22;919;48.274;12.292;2024-03-29T01:32:53;1.50;99.90
1800;DHT22;919;48.274;12.292;2024-03-29T01:35:19;1.50;99.90
1800;DHT22;919;48.274;12.292;2024-03-29T01:37:45;1.70;99.90
1800;DHT22;919;48.274;12.292;2024-03-29T01:40:11;1.70;99.90
1800;DHT22;919;48.274;12.292;2024-03-29T01:42:37;1.70;99.90
1800;DHT22;919;48.274;12.292;2024-03-29T01:45:05;1.60;99.90
1800;DHT22;919;48.274;12.292;2024-03-29T01:47:33;1.50;99.90
1800;DHT22;919;48.274;12.292;2024-03-29T01:50:00;1.30;99.90
1800;DHT22;919;48.274;12.292;2024-03-29T01:52:27;1.20;99.90
1800;DHT22;919;48.274;12.292;2024-03-29T01:54:55;1.20;99.90
1800;DHT22;919;48.274;12.292;2024-03-29T01:57:22;1.30;99.90
1800;DHT22;919;48.274;12.292;2024-03-29T01:59:50;1.10;99.90
1800;DHT22;919;48.274;12.292;2024-03-29T02:02:17;1.10;99.90
1800;DHT22;919;48.274;12.292;2024-03-29T02:04:44;1.20;99.90
1800;DHT22;919;48.274;12.292;2024-03-29T02:07:12;1.20;99.90
1800;DHT22;919;48.274;12.292;2024-03-29T02:09:39;1.10;99.90
1800;DHT22;919;48.274;12.292;2024-03-29T02:12:06;1.20;99.90
1800;DHT22;919;48.274;12.292;2024-03-29T02:14:33;1.20;99.90
1800;DHT22;919;48.274;12.292;2024-03-29T02:17:00;1.20;99.90
1800;DHT22;919;48.274;12.292;2024-03-29T02:19:28;1.20;99.90
1800;DHT22;919;48.274;12.292;2024-03-29T02:21:59;1.20;99.90
1800;DHT22;919;48.274;12.292;2024-03-29T02:24:27;1.20;99.90
1800;DHT22;919;48.274;12.292;2024-03-29T02:26:55;1.10;99.90
1800;DHT22;919;48.274;12.292;2024-03-29T02:29:23;0.80;99.90
1800;DHT22;919;48.274;12.292;2024-03-29T02:31:50;0.70;99.90
1800;DHT22;919;48.274;12.292;2024-03-29T02:34:16;0.60;99.90
1800;DHT22;919;48.274;12.292;2024-03-29T02:36:44;0.60;99.90
1800;DHT22;919;48.274;12.292;2024-03-29T02:39:11;0.60;99.90
1800;DHT22;919;48.274;12.292;2024-03-29T02:41:39;0.60;99.90
1800;DHT22;919;48.274;12.292;2024-03-29T02:44:05;0.80;99.90
1800;DHT22;919;48.274;12.292;2024-03-29T02:46:32;0.80;99.90
1800;DHT22;919;48.274;12.292;2024-03-29T02:48:59;0.80;99.90
1800;DHT22;919;48.274;12.292;2024-03-29T02:51:26;0.80;99.90
1800;DHT22;919;48.274;12.292;2024-03-29T02:53:51;0.80;99.90
1800;DHT22;919;48.274;12.292;2024-03-29T02:56:20;0.80;99.90
1800;DHT22;919;48.274;12.292;2024-03-29T02:58:51;0.90;99.90
1800;DHT22;919;48.274;12.292;2024-03-29T03:01:19;1.00;99.90
1800;DHT22;919;48.274;12.292;2024-03-29T03:03:45;0.80;99.90
1800;DHT22;919;48.274;12.292;2024-03-29T03:06:11;0.80;99.90
1800;DHT22;919;48.274;12.292;2024-03-29T03:08:37;0.80;99.90
1800;DHT22;919;48.274;12.292;2024-03-29T03:11:22;0.80;99.90
1800;DHT22;919;48.274;12.292;2024-03-29T03:13:50;0.80;99.90
1800;DHT22;919;48.274;12.292;2024-03-29T03:16:18;0.80;99.90
1800;DHT22;919;48.274;12.292;2024-03-29T03:18:45;0.90;99.90
1800;DHT22;919;48.274;12.292;2024-03-29T03:21:11;0.90;99.90
1800;DHT22;919;48.274;12.292;2024-03-29T03:23:38;1.00;99.90
1800;DHT22;919;48.274;12.292;2024-03-29T03:26:04;1.00;99.90
1800;DHT22;919;48.274;12.292;2024-03-29T03:28:31;1.10;99.90
1800;DHT22;919;48.274;12.292;2024-03-29T03:30:58;1.10;99.90
1800;DHT22;919;48.274;12.292;2024-03-29T03:33:25;1.10;99.90
1800;DHT22;919;48.274;12.292;2024-03-29T03:35:51;1.20;99.90
1800;DHT22;919;48.274;12.292;2024-03-29T03:38:17;1.30;99.90
1800;DHT22;919;48.274;12.292;2024-03-29T03:40:43;1.30;99.90
1800;DHT22;919;48.274;12.292;2024-03-29T03:43:10;1.40;99.90
1800;DHT22;919;48.274;12.292;2024-03-29T03:45:37;1.50;99.90
1800;DHT22;919;48.274;12.292;2024-03-29T03:48:07;1.60;99.90
1800;DHT22;919;48.274;12.292;2024-03-29T03:50:33;1.60;99.90
1800;DHT22;919;48.274;12.292;2024-03-29T03:53:02;1.70;99.90
1800;DHT22;919;48.274;12.292;2024-03-29T03:55:28;1.70;99.90
1800;DHT22;919;48.274;12.292;2024-03-29T03:57:55;1.70;99.90
1800;DHT22;919;48.274;12.292;2024-03-29T04:00:23;1.80;99.90
1800;DHT22;919;48.274;12.292;2024-03-29T04:02:50;1.80;99.90
1800;DHT22;919;48.274;12.292;2024-03-29T04:05:18;1.70;99.90
1800;DHT22;919;48.274;12.292;2024-03-29T04:07:46;1.60;99.90
1800;DHT22;919;48.274;12.292;2024-03-29T04:10:12;1.60;99.90
1800;DHT22;919;48.274;12.292;2024-03-29T04:12:39;1.60;99.90
1800;DHT22;919;48.274;12.292;2024-03-29T04:15:09;1.70;99.90
1800;DHT22;919;48.274;12.292;2024-03-29T04:17:36;1.80;99.90
1800;DHT22;919;48.274;12.292;2024-03-29T04:20:03;1.80;99.90
1800;DHT22;919;48.274;12.292;2024-03-29T04:22:32;1.70;99.90
1800;DHT22;919;48.274;12.292;2024-03-29T04:24:58;1.60;99.90
1800;DHT22;919;48.274;12.292;2024-03-29T04:27:26;1.50;99.90
1800;DHT22;919;48.274;12.292;2024-03-29T04:29:53;1.40;99.90
1800;DHT22;919;48.274;12.292;2024-03-29T04:32:21;1.50;99.90
1800;DHT22;919;48.274;12.292;2024-03-29T04:34:47;1.50;99.90
1800;DHT22;919;48.274;12.292;2024-03-29T04:37:14;1.50;99.90
1800;DHT22;919;48.274;12.292;2024-03-29T04:39:43;1.60;99.90
1800;DHT22;919;48.274;12.292;2024-03-29T04:42:11;1.60;99.90
1800;DHT22;919;48.274;12.292;2024-03-29T04:44:37;1.60;99.90
1800;DHT22;919;48.274;12.292;2024-03-29T04:47:05;1.60;99.90
1800;DHT22;919;48.274;12.292;2024-03-29T04:49:32;1.60;99.90
1800;DHT22;919;48.274;12.292;2024-03-29T04:52:02;1.60;99.90
1800;DHT22;919;48.274;12.292;2024-03-29T04:54:30;1.60;99.90
1800;DHT22;919;48.274;12.292;2024-03-29T04:56:59;1.60;99.90
1800;DHT22;919;48.274;12.292;2024-03-29T04:59:27;1.60;99.90
1800;DHT22;919;48.274;12.292;2024-03-29T05:01:55;1.60;99.90
1800;DHT22;919;48.274;12.292;2024-03-29T05:04:22;1.70;99.90
1800;DHT22;919;48.274;12.292;2024-03-29T05:06:52;1.60;99.90
1800;DHT22;919;48.274;12.292;2024-03-29T05:09:20;1.70;99.90
1800;DHT22;919;48.274;12.292;2024-03-29T05:11:47;1.70;99.90
1800;DHT22;919;48.274;12.292;2024-03-29T05:14:15;1.80;99.90
1800;DHT22;919;48.274;12.292;2024-03-29T05:16:44;1.80;99.90
1800;DHT22;919;48.274;12.292;2024-03-29T05:19:12;1.90;99.90
1800;DHT22;919;48.274;12.292;2024-03-29T05:21:39;1.90;99.90
1800;DHT22;919;48.274;12.292;2024-03-29T05:24:07;1.90;99.90
1800;DHT22;919;48.274;12.292;2024-03-29T05:26:34;1.90;99.90
1800;DHT22;919;48.274;12.292;2024-03-29T05:29:01;2.00;99.90
1800;DHT22;919;48.274;12.292;2024-03-29T05:31:30;2.10;99.90
1800;DHT22;919;48.274;12.292;2024-03-29T05:33:57;2.20;99.90
1800;DHT22;919;48.274;12.292;2024-03-29T05:36:26;2.30;99.90
1800;DHT22;919;48.274;12.292;2024-03-29T05:38:52;2.40;99.90
1800;DHT22;919;48.274;12.292;2024-03-29T05:41:19;2.50;99.90
1800;DHT22;919;48.274;12.292;2024-03-29T05:43:46;2.60;99.90
1800;DHT22;919;48.274;12.292;2024-03-29T05:46:15;2.70;99.90
1800;DHT22;919;48.274;12.292;2024-03-29T05:48:44;2.80;99.90
1800;DHT22;919;48.274;12.292;2024-03-29T05:51:11;2.90;99.90
1800;DHT22;919;48.274;12.292;2024-03-29T05:53:38;3.00;99.90
1800;DHT22;919;48.274;12.292;2024-03-29T05:56:05;3.10;99.90
1800;DHT22;919;48.274;12.292;2024-03-29T05:58:34;3.10;99.90
1800;DHT22;919;48.274;12.292;2024-03-29T06:01:05;3.20;99.90
1800;DHT22;919;48.274;12.292;2024-03-29T06:03:32;3.20;99.90
1800;DHT22;919;48.274;12.292;2024-03-29T06:06:00;3.20;99.90
1800;DHT22;919;48.274;12.292;2024-03-29T06:08:26;3.20;99.90
1800;DHT22;919;48.274;12.292;2024-03-29T06:10:53;3.30;99.90
1800;DHT22;919;48.274;12.292;2024-03-29T06:13:21;3.30;99.90
1800;DHT22;919;48.274;12.292;2024-03-29T06:16:10;3.30;99.90
1800;DHT22;919;48.274;12.292;2024-03-29T06:18:54;3.40;99.90
1800;DHT22;919;48.274;12.292;2024-03-29T06:21:23;3.50;99.90
1800;DHT22;919;48.274;12.292;2024-03-29T06:23:49;3.50;99.90
1800;DHT22;919;48.274;12.292;2024-03-29T06:26:17;3.60;99.90
1800;DHT22;919;48.274;12.292;2024-03-29T06:28:47;3.70;99.90
1800;DHT22;919;48.274;12.292;2024-03-29T06:31:14;3.90;99.90
1800;DHT22;919;48.274;12.292;2024-03-29T06:33:41;4.00;99.90
1800;DHT22;919;48.274;12.292;2024-03-29T06:36:08;4.10;99.90
1800;DHT22;919;48.274;12.292;2024-03-29T06:38:36;4.30;99.90
1800;DHT22;919;48.274;12.292;2024-03-29T06:41:02;4.40;99.90
1800;DHT22;919;48.274;12.292;2024-03-29T06:43:29;4.50;99.90
1800;DHT22;919;48.274;12.292;2024-03-29T06:45:56;4.60;99.90
1800;DHT22;919;48.274;12.292;2024-03-29T06:48:24;4.60;99.90
1800;DHT22;919;48.274;12.292;2024-03-29T06:50:51;4.70;99.90
1800;DHT22;919;48.274;12.292;2024-03-29T06:53:17;4.90;99.90
1800;DHT22;919;48.274;12.292;2024-03-29T06:55:47;5.10;99.90
1800;DHT22;919;48.274;12.292;2024-03-29T06:58:15;5.30;99.90
1800;DHT22;919;48.274;12.292;2024-03-29T07:00:46;5.40;99.90
1800;DHT22;919;48.274;12.292;2024-03-29T07:03:15;5.50;99.90
1800;DHT22;919;48.274;12.292;2024-03-29T07:05:42;5.60;99.90
1800;DHT22;919;48.274;12.292;2024-03-29T07:08:09;5.60;99.90
1800;DHT22;919;48.274;12.292;2024-03-29T07:10:37;5.80;99.90
1800;DHT22;919;48.274;12.292;2024-03-29T07:13:08;5.80;99.90
1800;DHT22;919;48.274;12.292;2024-03-29T07:15:35;5.90;99.90
1800;DHT22;919;48.274;12.292;2024-03-29T07:18:03;6.00;99.90
1800;DHT22;919;48.274;12.292;2024-03-29T07:20:30;6.10;99.90
1800;DHT22;919;48.274;12.292;2024-03-29T07:22:57;6.20;99.90
1800;DHT22;919;48.274;12.292;2024-03-29T07:25:25;6.30;99.90
1800;DHT22;919;48.274;12.292;2024-03-29T07:27:53;6.50;99.90
1800;DHT22;919;48.274;12.292;2024-03-29T07:30:21;6.70;99.90
1800;DHT22;919;48.274;12.292;2024-03-29T07:32:48;7.00;99.90
1800;DHT22;919;48.274;12.292;2024-03-29T07:35:15;7.20;99.90
1800;DHT22;919;48.274;12.292;2024-03-29T07:37:44;7.40;99.90
1800;DHT22;919;48.274;12.292;2024-03-29T07:40:15;7.70;99.90
1800;DHT22;919;48.274;12.292;2024-03-29T07:42:42;7.70;99.90
1800;DHT22;919;48.274;12.292;2024-03-29T07:45:10;7.70;99.90
1800;DHT22;919;48.274;12.292;2024-03-29T07:47:39;7.70;99.90
1800;DHT22;919;48.274;12.292;2024-03-29T07:50:06;7.70;99.90
1800;DHT22;919;48.274;12.292;2024-03-29T07:52:35;7.70;99.90
1800;DHT22;919;48.274;12.292;2024-03-29T07:55:02;7.70;99.90
1800;DHT22;919;48.274;12.292;2024-03-29T07:57:30;7.70;99.90
1800;DHT22;919;48.274;12.292;2024-03-29T07:59:58;7.80;99.90
1800;DHT22;919;48.274;12.292;2024-03-29T08:02:25;7.80;99.90
1800;DHT22;919;48.274;12.292;2024-03-29T08:04:53;7.90;99.90
1800;DHT22;919;48.274;12.292;2024-03-29T08:07:21;7.90;99.90
1800;DHT22;919;48.274;12.292;2024-03-29T08:09:49;8.00;99.90
1800;DHT22;919;48.274;12.292;2024-03-29T08:12:16;8.10;99.90
1800;DHT22;919;48.274;12.292;2024-03-29T08:14:43;8.30;99.90
1800;DHT22;919;48.274;12.292;2024-03-29T08:17:11;8.40;99.90
1800;DHT22;919;48.274;12.292;2024-03-29T08:19:40;8.50;99.90
1800;DHT22;919;48.274;12.292;2024-03-29T08:22:08;8.80;99.90
1800;DHT22;919;48.274;12.292;2024-03-29T08:24:35;8.90;99.90
1800;DHT22;919;48.274;12.292;2024-03-29T08:27:02;9.10;99.90
1800;DHT22;919;48.274;12.292;2024-03-29T08:29:29;9.40;99.90
1800;DHT22;919;48.274;12.292;2024-03-29T08:31:56;9.70;99.90
1800;DHT22;919;48.274;12.292;2024-03-29T08:34:23;10.00;99.90
1800;DHT22;919;48.274;12.292;2024-03-29T08:36:50;10.20;99.90
1800;DHT22;919;48.274;12.292;2024-03-29T08:39:18;10.30;99.90
1800;DHT22;919;48.274;12.292;2024-03-29T08:41:45;10.50;99.90
1800;DHT22;919;48.274;12.292;2024-03-29T08:44:12;10.60;99.90
1800;DHT22;919;48.274;12.292;2024-03-29T08:46:39;10.70;99.90
1800;DHT22;919;48.274;12.292;2024-03-29T08:49:06;10.80;99.90
1800;DHT22;919;48.274;12.292;2024-03-29T08:51:33;10.90;99.90
1800;DHT22;919;48.274;12.292;2024-03-29T08:53:59;10.90;99.90
1800;DHT22;919;48.274;12.292;2024-03-29T08:56:31;11.00;99.90
1800;DHT22;919;48.274;12.292;2024-03-29T08:59:00;11.10;99.90
1800;DHT22;919;48.274;12.292;2024-03-29T09:01:28;11.20;99.90
1800;DHT22;919;48.274;12.292;2024-03-29T09:03:55;11.30;99.90
1800;DHT22;919;48.274;12.292;2024-03-29T09:06:22;11.30;99.90
1800;DHT22;919;48.274;12.292;2024-03-29T09:08:48;11.20;99.90
1800;DHT22;919;48.274;12.292;2024-03-29T09:11:15;11.30;99.90
1800;DHT22;919;48.274;12.292;2024-03-29T09:13:43;11.40;99.90
1800;DHT22;919;48.274;12.292;2024-03-29T09:16:10;11.50;99.90
1800;DHT22;919;48.274;12.292;2024-03-29T09:18:36;11.70;99.90
1800;DHT22;919;48.274;12.292;2024-03-29T09:21:03;11.90;99.90
1800;DHT22;919;48.274;12.292;2024-03-29T09:23:30;12.00;99.90
1800;DHT22;919;48.274;12.292;2024-03-29T09:25:57;12.20;99.90
1800;DHT22;919;48.274;12.292;2024-03-29T09:28:24;12.50;99.90
1800;DHT22;919;48.274;12.292;2024-03-29T09:30:57;12.80;99.90
1800;DHT22;919;48.274;12.292;2024-03-29T09:33:24;13.00;99.90
1800;DHT22;919;48.274;12.292;2024-03-29T09:35:51;13.00;99.90
1800;DHT22;919;48.274;12.292;2024-03-29T09:38:19;13.10;99.90
1800;DHT22;919;48.274;12.292;2024-03-29T09:40:46;13.20;99.90
1800;DHT22;919;48.274;12.292;2024-03-29T09:43:14;13.30;99.90
1800;DHT22;919;48.274;12.292;2024-03-29T09:45:43;13.40;99.90
1800;DHT22;919;48.274;12.292;2024-03-29T09:48:12;13.70;99.90
1800;DHT22;919;48.274;12.292;2024-03-29T09:50:38;13.80;99.90
1800;DHT22;919;48.274;12.292;2024-03-29T09:53:05;14.00;99.90
1800;DHT22;919;48.274;12.292;2024-03-29T09:55:33;14.20;99.90
1800;DHT22;919;48.274;12.292;2024-03-29T09:58:02;14.40;99.90
1800;DHT22;919;48.274;12.292;2024-03-29T10:00:29;14.60;99.90
1800;DHT22;919;48.274;12.292;2024-03-29T10:02:56;14.90;99.90
1800;DHT22;919;48.274;12.292;2024-03-29T10:05:26;15.10;99.90
1800;DHT22;919;48.274;12.292;2024-03-29T10:07:54;15.30;99.90
1800;DHT22;919;48.274;12.292;2024-03-29T10:10:21;15.70;99.90
1800;DHT22;919;48.274;12.292;2024-03-29T10:12:48;16.00;99.90
1800;DHT22;919;48.274;12.292;2024-03-29T10:15:15;16.10;99.90
1800;DHT22;919;48.274;12.292;2024-03-29T10:17:45;16.20;99.90
1800;DHT22;919;48.274;12.292;2024-03-29T10:20:16;16.30;99.90
1800;DHT22;919;48.274;12.292;2024-03-29T10:22:45;16.50;99.90
1800;DHT22;919;48.274;12.292;2024-03-29T10:25:13;16.90;99.90
1800;DHT22;919;48.274;12.292;2024-03-29T10:27:39;17.00;99.90
1800;DHT22;919;48.274;12.292;2024-03-29T10:30:07;17.00;99.90
1800;DHT22;919;48.274;12.292;2024-03-29T10:32:36;17.10;99.90
1800;DHT22;919;48.274;12.292;2024-03-29T10:35:04;17.00;99.90
1800;DHT22;919;48.274;12.292;2024-03-29T10:37:30;16.80;99.90
1800;DHT22;919;48.274;12.292;2024-03-29T10:40:06;16.90;99.90
1800;DHT22;919;48.274;12.292;2024-03-29T10:42:34;16.90;99.90
1800;DHT22;919;48.274;12.292;2024-03-29T10:45:02;16.90;99.90
1800;DHT22;919;48.274;12.292;2024-03-29T10:47:30;17.00;99.90
1800;DHT22;919;48.274;12.292;2024-03-29T10:49:58;17.30;99.90
1800;DHT22;919;48.274;12.292;2024-03-29T10:52:26;17.50;99.90
1800;DHT22;919;48.274;12.292;2024-03-29T10:54:52;17.60;99.90
1800;DHT22;919;48.274;12.292;2024-03-29T10:57:23;17.60;99.90
1800;DHT22;919;48.274;12.292;2024-03-29T11:00:00;17.60;99.90
1800;DHT22;919;48.274;12.292;2024-03-29T11:02:35;17.50;99.90
1800;DHT22;919;48.274;12.292;2024-03-29T11:05:06;17.40;99.90
1800;DHT22;919;48.274;12.292;2024-03-29T11:07:40;17.30;99.90
1800;DHT22;919;48.274;12.292;2024-03-29T11:10:13;17.30;99.90
1800;DHT22;919;48.274;12.292;2024-03-29T11:12:58;17.50;99.90
1800;DHT22;919;48.274;12.292;2024-03-29T11:15:29;17.50;99.90
1800;DHT22;919;48.274;12.292;2024-03-29T11:17:56;17.50;99.90
1800;DHT22;919;48.274;12.292;2024-03-29T11:20:25;17.50;99.90
1800;DHT22;919;48.274;12.292;2024-03-29T11:23:01;17.40;99.90
1800;DHT22;919;48.274;12.292;2024-03-29T11:25:38;17.40;99.90
1800;DHT22;919;48.274;12.292;2024-03-29T11:28:07;17.30;99.90
1800;DHT22;919;48.274;12.292;2024-03-29T11:30:40;17.30;99.90
1800;DHT22;919;48.274;12.292;2024-03-29T11:33:07;17.50;99.90
1800;DHT22;919;48.274;12.292;2024-03-29T11:35:39;17.70;99.90
1800;DHT22;919;48.274;12.292;2024-03-29T11:38:06;18.00;99.90
1800;DHT22;919;48.274;12.292;2024-03-29T11:40:33;18.30;99.90
1800;DHT22;919;48.274;12.292;2024-03-29T11:42:59;18.50;99.90
1800;DHT22;919;48.274;12.292;2024-03-29T11:45:27;18.80;99.90
1800;DHT22;919;48.274;12.292;2024-03-29T11:48:01;19.10;99.90
1800;DHT22;919;48.274;12.292;2024-03-29T11:50:32;19.30;99.90
1800;DHT22;919;48.274;12.292;2024-03-29T11:53:02;19.50;99.90
1800;DHT22;919;48.274;12.292;2024-03-29T11:55:29;19.50;99.90
1800;DHT22;919;48.274;12.292;2024-03-29T11:57:55;19.40;99.90
1800;DHT22;919;48.274;12.292;2024-03-29T12:00:22;19.60;99.90
1800;DHT22;919;48.274;12.292;2024-03-29T12:02:56;19.70;99.90
1800;DHT22;919;48.274;12.292;2024-03-29T12:05:26;19.70;99.90
1800;DHT22;919;48.274;12.292;2024-03-29T12:07:54;19.90;99.90
1800;DHT22;919;48.274;12.292;2024-03-29T12:10:21;20.10;99.90
1800;DHT22;919;48.274;12.292;2024-03-29T12:12:47;20.10;99.90
1800;DHT22;919;48.274;12.292;2024-03-29T12:15:15;20.20;99.90
1800;DHT22;919;48.274;12.292;2024-03-29T12:17:45;20.20;99.90
1800;DHT22;919;48.274;12.292;2024-03-29T12:20:20;20.40;99.90
1800;DHT22;919;48.274;12.292;2024-03-29T12:22:47;20.50;99.90
1800;DHT22;919;48.274;12.292;2024-03-29T12:25:13;20.40;99.90
1800;DHT22;919;48.274;12.292;2024-03-29T12:27:42;20.30;99.90
1800;DHT22;919;48.274;12.292;2024-03-29T12:30:09;20.60;99.90
1800;DHT22;919;48.274;12.292;2024-03-29T12:32:36;20.90;99.90
1800;DHT22;919;48.274;12.292;2024-03-29T12:35:08;21.30;99.90
1800;DHT22;919;48.274;12.292;2024-03-29T12:37:37;21.50;99.90
1800;DHT22;919;48.274;12.292;2024-03-29T12:40:05;21.90;99.90
1800;DHT22;919;48.274;12.292;2024-03-29T12:42:38;22.30;99.90
1800;DHT22;919;48.274;12.292;2024-03-29T12:45:05;22.50;99.90
1800;DHT22;919;48.274;12.292;2024-03-29T12:47:33;22.60;99.90
1800;DHT22;919;48.274;12.292;2024-03-29T12:50:02;22.50;99.90
1800;DHT22;919;48.274;12.292;2024-03-29T12:52:39;22.40;99.90
1800;DHT22;919;48.274;12.292;2024-03-29T12:55:06;22.50;99.90
1800;DHT22;919;48.274;12.292;2024-03-29T12:57:34;22.50;99.90
1800;DHT22;919;48.274;12.292;2024-03-29T13:00:01;22.60;99.90
1800;DHT22;919;48.274;12.292;2024-03-29T13:02:29;22.60;99.90
1800;DHT22;919;48.274;12.292;2024-03-29T13:04:56;22.30;99.90
1800;DHT22;919;48.274;12.292;2024-03-29T13:07:23;22.30;99.90
1800;DHT22;919;48.274;12.292;2024-03-29T13:09:52;22.30;99.90
1800;DHT22;919;48.274;12.292;2024-03-29T13:12:19;22.10;99.90
1800;DHT22;919;48.274;12.292;2024-03-29T13:14:46;22.30;99.90
1800;DHT22;919;48.274;12.292;2024-03-29T13:17:13;22.40;99.90
1800;DHT22;919;48.274;12.292;2024-03-29T13:19:46;22.40;99.90
1800;DHT22;919;48.274;12.292;2024-03-29T13:22:14;22.40;99.90
1800;DHT22;919;48.274;12.292;2024-03-29T13:24:42;22.60;99.90
1800;DHT22;919;48.274;12.292;2024-03-29T13:27:11;22.70;99.90
1800;DHT22;919;48.274;12.292;2024-03-29T13:29:40;22.60;99.90
1800;DHT22;919;48.274;12.292;2024-03-29T13:32:07;22.50;99.90
1800;DHT22;919;48.274;12.292;2024-03-29T13:34:34;22.30;99.90
1800;DHT22;919;48.274;12.292;2024-03-29T13:37:02;22.30;99.90
1800;DHT22;919;48.274;12.292;2024-03-29T13:39:29;22.30;99.90
1800;DHT22;919;48.274;12.292;2024-03-29T13:41:55;22.50;99.90
1800;DHT22;919;48.274;12.292;2024-03-29T13:44:23;22.30;99.90
1800;DHT22;919;48.274;12.292;2024-03-29T13:46:50;22.20;99.90
1800;DHT22;919;48.274;12.292;2024-03-29T13:49:18;22.30;99.90
1800;DHT22;919;48.274;12.292;2024-03-29T13:51:46;22.20;99.90
1800;DHT22;919;48.274;12.292;2024-03-29T13:54:13;22.40;99.90
1800;DHT22;919;48.274;12.292;2024-03-29T13:56:40;22.30;99.90
1800;DHT22;919;48.274;12.292;2024-03-29T13:59:08;22.20;99.90
1800;DHT22;919;48.274;12.292;2024-03-29T14:01:36;22.00;99.90
1800;DHT22;919;48.274;12.292;2024-03-29T14:04:03;21.70;99.90
1800;DHT22;919;48.274;12.292;2024-03-29T14:06:30;21.90;99.90
1800;DHT22;919;48.274;12.292;2024-03-29T14:08:57;22.10;99.90
1800;DHT22;919;48.274;12.292;2024-03-29T14:11:24;22.40;99.90
1800;DHT22;919;48.274;12.292;2024-03-29T14:13:50;22.60;99.90
1800;DHT22;919;48.274;12.292;2024-03-29T14:16:21;22.90;99.90
1800;DHT22;919;48.274;12.292;2024-03-29T14:18:49;23.10;99.90
1800;DHT22;919;48.274;12.292;2024-03-29T14:21:19;23.30;99.90
1800;DHT22;919;48.274;12.292;2024-03-29T14:23:46;23.30;99.90
1800;DHT22;919;48.274;12.292;2024-03-29T14:26:14;23.10;99.90
1800;DHT22;919;48.274;12.292;2024-03-29T14:28:42;23.10;99.20
1800;DHT22;919;48.274;12.292;2024-03-29T14:31:09;23.10;99.90
1800;DHT22;919;48.274;12.292;2024-03-29T14:33:37;23.00;99.90
1800;DHT22;919;48.274;12.292;2024-03-29T14:36:07;22.90;99.90
1800;DHT22;919;48.274;12.292;2024-03-29T14:38:35;22.60;99.90
1800;DHT22;919;48.274;12.292;2024-03-29T14:41:03;22.30;99.60
1800;DHT22;919;48.274;12.292;2024-03-29T14:43:30;22.10;99.10
1800;DHT22;919;48.274;12.292;2024-03-29T14:45:58;22.10;99.90
1800;DHT22;919;48.274;12.292;2024-03-29T14:48:26;21.80;99.50
1800;DHT22;919;48.274;12.292;2024-03-29T14:50:53;21.80;99.90
1800;DHT22;919;48.274;12.292;2024-03-29T14:53:23;21.80;99.90
1800;DHT22;919;48.274;12.292;2024-03-29T14:55:50;21.70;99.90
1800;DHT22;919;48.274;12.292;2024-03-29T14:58:17;21.70;99.90
1800;DHT22;919;48.274;12.292;2024-03-29T15:00:45;21.70;99.90
1800;DHT22;919;48.274;12.292;2024-03-29T15:03:12;21.50;99.90
1800;DHT22;919;48.274;12.292;2024-03-29T15:05:40;21.40;99.90
1800;DHT22;919;48.274;12.292;2024-03-29T15:08:07;21.40;99.90
1800;DHT22;919;48.274;12.292;2024-03-29T15:10:44;21.50;99.90
1800;DHT22;919;48.274;12.292;2024-03-29T15:13:12;21.60;99.90
1800;DHT22;919;48.274;12.292;2024-03-29T15:15:41;21.40;99.90
1800;DHT22;919;48.274;12.292;2024-03-29T15:18:09;21.40;99.90
1800;DHT22;919;48.274;12.292;2024-03-29T15:20:36;21.40;99.90
1800;DHT22;919;48.274;12.292;2024-03-29T15:23:04;21.20;99.90
1800;DHT22;919;48.274;12.292;2024-03-29T15:25:34;21.00;99.90
1800;DHT22;919;48.274;12.292;2024-03-29T15:28:03;21.00;99.90
1800;DHT22;919;48.274;12.292;2024-03-29T15:30:49;20.80;99.90
1800;DHT22;919;48.274;12.292;2024-03-29T15:33:22;20.80;99.90
1800;DHT22;919;48.274;12.292;2024-03-29T15:35:49;20.50;99.90
1800;DHT22;919;48.274;12.292;2024-03-29T15:38:16;20.40;99.90
1800;DHT22;919;48.274;12.292;2024-03-29T15:40:53;20.30;99.90
1800;DHT22;919;48.274;12.292;2024-03-29T15:43:21;20.20;99.90
1800;DHT22;919;48.274;12.292;2024-03-29T15:45:50;20.10;99.90
1800;DHT22;919;48.274;12.292;2024-03-29T15:48:17;20.00;99.90
1800;DHT22;919;48.274;12.292;2024-03-29T15:50:44;20.00;99.90
1800;DHT22;919;48.274;12.292;2024-03-29T15:53:12;20.00;99.90
1800;DHT22;919;48.274;12.292;2024-03-29T15:55:41;19.90;99.90
1800;DHT22;919;48.274;12.292;2024-03-29T15:58:10;19.80;99.90
1800;DHT22;919;48.274;12.292;2024-03-29T16:00:39;19.70;99.90
1800;DHT22;919;48.274;12.292;2024-03-29T16:03:10;19.70;99.90
1800;DHT22;919;48.274;12.292;2024-03-29T16:05:40;19.70;99.90
1800;DHT22;919;48.274;12.292;2024-03-29T16:08:07;19.70;99.90
1800;DHT22;919;48.274;12.292;2024-03-29T16:10:50;19.60;99.90
1800;DHT22;919;48.274;12.292;2024-03-29T16:13:18;19.60;99.90